sensor_id;sensor_type;location;lat;lon;timestamp;P1;durP1;ratioP1;P2;durP2;ratioP2
56173;SDS011;42058;52.308;20.924;2022-08-01T00:01:14;2.93;;;2.10;;
56173;SDS011;42058;52.308;20.924;2022-08-01T00:03:40;3.50;;;1.67;;
56173;SDS011;42058;52.308;20.924;2022-08-01T00:06:06;2.83;;;2.10;;
56173;SDS011;42058;52.308;20.924;2022-08-01T00:08:33;6.27;;;2.13;;
56173;SDS011;42058;52.308;20.924;2022-08-01T00:10:59;3.53;;;1.97;;
56173;SDS011;42058;52.308;20.924;2022-08-01T00:13:25;3.90;;;2.00;;
56173;SDS011;42058;52.308;20.924;2022-08-01T00:15:51;3.20;;;1.80;;
56173;SDS011;42058;52.308;20.924;2022-08-01T00:18:17;6.47;;;1.70;;
56173;SDS011;42058;52.308;20.924;2022-08-01T00:20:43;4.10;;;1.90;;
56173;SDS011;42058;52.308;20.924;2022-08-01T00:23:09;7.47;;;2.10;;
56173;SDS011;42058;52.308;20.924;2022-08-01T00:25:35;3.87;;;2.20;;
56173;SDS011;42058;52.308;20.924;2022-08-01T00:28:02;4.07;;;1.90;;
56173;SDS011;42058;52.308;20.924;2022-08-01T00:30:30;6.10;;;1.83;;
56173;SDS011;42058;52.308;20.924;2022-08-01T00:32:56;7.53;;;1.80;;
56173;SDS011;42058;52.308;20.924;2022-08-01T00:35:22;3.27;;;1.80;;
56173;SDS011;42058;52.308;20.924;2022-08-01T00:37:49;4.27;;;1.90;;
56173;SDS011;42058;52.308;20.924;2022-08-01T00:40:15;6.10;;;1.90;;
56173;SDS011;42058;52.308;20.924;2022-08-01T00:42:41;7.50;;;2.20;;
56173;SDS011;42058;52.308;20.924;2022-08-01T00:45:07;4.83;;;2.00;;
56173;SDS011;42058;52.308;20.924;2022-08-01T00:47:34;5.93;;;1.87;;
56173;SDS011;42058;52.308;20.924;2022-08-01T00:50:00;3.57;;;1.87;;
56173;SDS011;42058;52.308;20.924;2022-08-01T00:52:29;4.27;;;1.93;;
56173;SDS011;42058;52.308;20.924;2022-08-01T00:54:56;4.33;;;1.90;;
56173;SDS011;42058;52.308;20.924;2022-08-01T00:57:23;6.67;;;1.97;;
56173;SDS011;42058;52.308;20.924;2022-08-01T00:59:49;7.20;;;1.97;;
56173;SDS011;42058;52.308;20.924;2022-08-01T01:02:16;2.80;;;2.10;;
56173;SDS011;42058;52.308;20.924;2022-08-01T01:04:43;5.83;;;2.10;;
56173;SDS011;42058;52.308;20.924;2022-08-01T01:07:13;2.67;;;1.80;;
56173;SDS011;42058;52.308;20.924;2022-08-01T01:09:58;5.33;;;2.10;;
56173;SDS011;42058;52.308;20.924;2022-08-01T01:15:33;3.07;;;2.10;;
56173;SDS011;42058;52.308;20.924;2022-08-01T01:18:03;3.30;;;2.00;;
56173;SDS011;42058;52.308;20.924;2022-08-01T01:20:41;3.70;;;2.10;;
56173;SDS011;42058;52.308;20.924;2022-08-01T01:23:23;5.93;;;1.90;;
56173;SDS011;42058;52.308;20.924;2022-08-01T01:26:26;3.90;;;2.13;;
56173;SDS011;42058;52.308;20.924;2022-08-01T01:32:17;1.83;;;1.73;;
56173;SDS011;42058;52.308;20.924;2022-08-01T01:34:59;5.83;;;2.33;;
56173;SDS011;42058;52.308;20.924;2022-08-01T01:37:29;3.30;;;2.20;;
56173;SDS011;42058;52.308;20.924;2022-08-01T01:39:59;5.90;;;2.20;;
56173;SDS011;42058;52.308;20.924;2022-08-01T01:42:28;4.13;;;2.10;;
56173;SDS011;42058;52.308;20.924;2022-08-01T01:44:56;3.80;;;2.10;;
56173;SDS011;42058;52.308;20.924;2022-08-01T01:47:24;6.23;;;2.17;;
56173;SDS011;42058;52.308;20.924;2022-08-01T01:49:51;6.70;;;2.47;;
56173;SDS011;42058;52.308;20.924;2022-08-01T01:52:20;3.83;;;2.00;;
56173;SDS011;42058;52.308;20.924;2022-08-01T01:54:50;6.23;;;2.20;;
56173;SDS011;42058;52.308;20.924;2022-08-01T01:57:18;7.27;;;2.10;;
56173;SDS011;42058;52.308;20.924;2022-08-01T01:59:46;5.97;;;2.27;;
56173;SDS011;42058;52.308;20.924;2022-08-01T02:02:13;6.47;;;2.20;;
56173;SDS011;42058;52.308;20.924;2022-08-01T02:04:43;6.20;;;2.00;;
56173;SDS011;42058;52.308;20.924;2022-08-01T02:07:13;6.87;;;2.17;;
56173;SDS011;42058;52.308;20.924;2022-08-01T02:09:45;4.03;;;1.80;;
56173;SDS011;42058;52.308;20.924;2022-08-01T02:12:12;4.77;;;2.20;;
56173;SDS011;42058;52.308;20.924;2022-08-01T02:14:40;3.20;;;2.00;;
56173;SDS011;42058;52.308;20.924;2022-08-01T02:17:08;2.77;;;2.30;;
56173;SDS011;42058;52.308;20.924;2022-08-01T02:19:37;3.27;;;2.20;;
56173;SDS011;42058;52.308;20.924;2022-08-01T02:22:05;4.63;;;2.13;;
56173;SDS011;42058;52.308;20.924;2022-08-01T02:27:39;7.10;;;2.13;;
56173;SDS011;42058;52.308;20.924;2022-08-01T02:30:12;9.60;;;2.13;;
56173;SDS011;42058;52.308;20.924;2022-08-01T02:32:41;7.60;;;2.60;;
56173;SDS011;42058;52.308;20.924;2022-08-01T02:35:26;7.07;;;2.00;;
56173;SDS011;42058;52.308;20.924;2022-08-01T02:37:55;7.90;;;2.30;;
56173;SDS011;42058;52.308;20.924;2022-08-01T02:40:23;8.23;;;2.10;;
56173;SDS011;42058;52.308;20.924;2022-08-01T02:42:55;4.05;;;2.00;;
56173;SDS011;42058;52.308;20.924;2022-08-01T02:45:25;2.30;;;2.00;;
56173;SDS011;42058;52.308;20.924;2022-08-01T02:47:59;3.43;;;1.90;;
56173;SDS011;42058;52.308;20.924;2022-08-01T02:50:27;3.47;;;2.33;;
56173;SDS011;42058;52.308;20.924;2022-08-01T02:52:56;5.40;;;2.07;;
56173;SDS011;42058;52.308;20.924;2022-08-01T02:55:23;3.93;;;2.20;;
56173;SDS011;42058;52.308;20.924;2022-08-01T02:57:51;6.60;;;2.10;;
56173;SDS011;42058;52.308;20.924;2022-08-01T03:00:21;5.43;;;1.90;;
56173;SDS011;42058;52.308;20.924;2022-08-01T03:02:49;8.47;;;2.30;;
56173;SDS011;42058;52.308;20.924;2022-08-01T03:05:20;5.03;;;2.40;;
56173;SDS011;42058;52.308;20.924;2022-08-01T03:07:47;5.07;;;2.50;;
56173;SDS011;42058;52.308;20.924;2022-08-01T03:10:14;5.87;;;2.50;;
56173;SDS011;42058;52.308;20.924;2022-08-01T03:12:42;6.70;;;2.37;;
56173;SDS011;42058;52.308;20.924;2022-08-01T03:15:11;7.43;;;2.40;;
56173;SDS011;42058;52.308;20.924;2022-08-01T03:17:39;5.37;;;2.10;;
56173;SDS011;42058;52.308;20.924;2022-08-01T03:26:14;12.13;;;3.07;;
56173;SDS011;42058;52.308;20.924;2022-08-01T03:28:41;3.77;;;2.33;;
56173;SDS011;42058;52.308;20.924;2022-08-01T03:31:12;3.37;;;2.10;;
56173;SDS011;42058;52.308;20.924;2022-08-01T03:33:40;2.77;;;2.47;;
56173;SDS011;42058;52.308;20.924;2022-08-01T03:36:07;6.30;;;2.33;;
56173;SDS011;42058;52.308;20.924;2022-08-01T03:38:37;3.43;;;2.03;;
56173;SDS011;42058;52.308;20.924;2022-08-01T03:41:08;4.33;;;2.10;;
56173;SDS011;42058;52.308;20.924;2022-08-01T03:43:40;3.83;;;2.50;;
56173;SDS011;42058;52.308;20.924;2022-08-01T03:46:11;3.65;;;2.50;;
56173;SDS011;42058;52.308;20.924;2022-08-01T03:48:47;3.60;;;2.33;;
56173;SDS011;42058;52.308;20.924;2022-08-01T03:51:14;6.70;;;2.53;;
56173;SDS011;42058;52.308;20.924;2022-08-01T03:53:42;8.03;;;2.90;;
56173;SDS011;42058;52.308;20.924;2022-08-01T03:56:11;5.57;;;2.23;;
56173;SDS011;42058;52.308;20.924;2022-08-01T03:58:42;7.70;;;2.63;;
56173;SDS011;42058;52.308;20.924;2022-08-01T04:01:09;5.87;;;2.50;;
56173;SDS011;42058;52.308;20.924;2022-08-01T04:03:36;4.33;;;2.67;;
56173;SDS011;42058;52.308;20.924;2022-08-01T04:06:04;7.47;;;2.67;;
56173;SDS011;42058;52.308;20.924;2022-08-01T04:08:36;4.77;;;2.83;;
56173;SDS011;42058;52.308;20.924;2022-08-01T04:11:04;8.47;;;2.77;;
56173;SDS011;42058;52.308;20.924;2022-08-01T04:13:31;3.20;;;2.30;;
56173;SDS011;42058;52.308;20.924;2022-08-01T04:15:58;6.23;;;2.80;;
56173;SDS011;42058;52.308;20.924;2022-08-01T04:18:25;6.43;;;2.87;;
56173;SDS011;42058;52.308;20.924;2022-08-01T04:20:51;7.73;;;2.67;;
56173;SDS011;42058;52.308;20.924;2022-08-01T04:23:18;4.13;;;2.57;;
56173;SDS011;42058;52.308;20.924;2022-08-01T04:25:48;6.17;;;2.40;;
56173;SDS011;42058;52.308;20.924;2022-08-01T04:28:16;4.50;;;2.70;;
56173;SDS011;42058;52.308;20.924;2022-08-01T04:30:43;3.23;;;2.93;;
56173;SDS011;42058;52.308;20.924;2022-08-01T04:33:13;4.40;;;2.90;;
56173;SDS011;42058;52.308;20.924;2022-08-01T04:35:45;3.87;;;3.07;;
56173;SDS011;42058;52.308;20.924;2022-08-01T04:38:18;8.43;;;2.95;;
56173;SDS011;42058;52.308;20.924;2022-08-01T04:40:47;5.33;;;2.90;;
56173;SDS011;42058;52.308;20.924;2022-08-01T04:43:16;4.03;;;2.73;;
56173;SDS011;42058;52.308;20.924;2022-08-01T04:45:42;8.80;;;3.10;;
56173;SDS011;42058;52.308;20.924;2022-08-01T04:48:10;3.87;;;3.17;;
56173;SDS011;42058;52.308;20.924;2022-08-01T04:50:38;6.90;;;3.03;;
56173;SDS011;42058;52.308;20.924;2022-08-01T04:53:05;3.83;;;3.17;;
56173;SDS011;42058;52.308;20.924;2022-08-01T04:55:42;4.73;;;3.03;;
56173;SDS011;42058;52.308;20.924;2022-08-01T04:58:10;10.23;;;3.37;;
56173;SDS011;42058;52.308;20.924;2022-08-01T05:00:39;4.23;;;2.97;;
56173;SDS011;42058;52.308;20.924;2022-08-01T05:03:05;3.73;;;2.93;;
56173;SDS011;42058;52.308;20.924;2022-08-01T05:05:31;4.77;;;3.20;;
56173;SDS011;42058;52.308;20.924;2022-08-01T05:07:57;3.90;;;3.43;;
56173;SDS011;42058;52.308;20.924;2022-08-01T05:10:24;6.33;;;3.77;;
56173;SDS011;42058;52.308;20.924;2022-08-01T05:12:51;6.77;;;3.40;;
56173;SDS011;42058;52.308;20.924;2022-08-01T05:15:17;3.83;;;3.20;;
56173;SDS011;42058;52.308;20.924;2022-08-01T05:17:43;4.80;;;3.50;;
56173;SDS011;42058;52.308;20.924;2022-08-01T05:20:10;4.43;;;3.50;;
56173;SDS011;42058;52.308;20.924;2022-08-01T05:22:37;8.10;;;3.50;;
56173;SDS011;42058;52.308;20.924;2022-08-01T05:25:04;6.80;;;4.00;;
56173;SDS011;42058;52.308;20.924;2022-08-01T05:27:31;4.10;;;3.70;;
56173;SDS011;42058;52.308;20.924;2022-08-01T05:29:58;5.80;;;3.63;;
56173;SDS011;42058;52.308;20.924;2022-08-01T05:32:24;5.40;;;3.50;;
56173;SDS011;42058;52.308;20.924;2022-08-01T05:34:50;4.87;;;3.53;;
56173;SDS011;42058;52.308;20.924;2022-08-01T05:37:16;5.60;;;3.37;;
56173;SDS011;42058;52.308;20.924;2022-08-01T05:39:42;9.27;;;3.60;;
56173;SDS011;42058;52.308;20.924;2022-08-01T05:42:12;6.57;;;3.77;;
56173;SDS011;42058;52.308;20.924;2022-08-01T05:44:40;4.70;;;3.90;;
56173;SDS011;42058;52.308;20.924;2022-08-01T05:47:06;4.00;;;3.50;;
56173;SDS011;42058;52.308;20.924;2022-08-01T05:49:32;4.63;;;3.20;;
56173;SDS011;42058;52.308;20.924;2022-08-01T05:51:58;5.77;;;3.50;;
56173;SDS011;42058;52.308;20.924;2022-08-01T05:54:26;3.80;;;3.30;;
56173;SDS011;42058;52.308;20.924;2022-08-01T05:56:53;3.67;;;3.23;;
56173;SDS011;42058;52.308;20.924;2022-08-01T05:59:20;5.73;;;3.17;;
56173;SDS011;42058;52.308;20.924;2022-08-01T06:01:46;4.10;;;3.43;;
56173;SDS011;42058;52.308;20.924;2022-08-01T06:04:12;3.13;;;2.83;;
56173;SDS011;42058;52.308;20.924;2022-08-01T06:06:40;3.57;;;3.00;;
56173;SDS011;42058;52.308;20.924;2022-08-01T06:09:06;3.87;;;2.70;;
56173;SDS011;42058;52.308;20.924;2022-08-01T06:11:32;4.07;;;2.60;;
56173;SDS011;42058;52.308;20.924;2022-08-01T06:13:58;6.07;;;2.80;;
56173;SDS011;42058;52.308;20.924;2022-08-01T06:16:24;7.47;;;2.83;;
56173;SDS011;42058;52.308;20.924;2022-08-01T06:18:51;4.20;;;2.87;;
56173;SDS011;42058;52.308;20.924;2022-08-01T06:21:17;4.87;;;2.73;;
56173;SDS011;42058;52.308;20.924;2022-08-01T06:23:43;2.77;;;2.40;;
56173;SDS011;42058;52.308;20.924;2022-08-01T06:26:11;6.57;;;2.30;;
56173;SDS011;42058;52.308;20.924;2022-08-01T06:28:41;2.97;;;2.40;;
56173;SDS011;42058;52.308;20.924;2022-08-01T06:31:07;4.80;;;2.50;;
56173;SDS011;42058;52.308;20.924;2022-08-01T06:33:35;2.50;;;2.30;;
56173;SDS011;42058;52.308;20.924;2022-08-01T06:36:01;4.00;;;2.27;;
56173;SDS011;42058;52.308;20.924;2022-08-01T06:38:28;3.60;;;2.07;;
56173;SDS011;42058;52.308;20.924;2022-08-01T06:40:54;2.07;;;1.87;;
56173;SDS011;42058;52.308;20.924;2022-08-01T06:43:24;3.47;;;2.07;;
56173;SDS011;42058;52.308;20.924;2022-08-01T06:45:50;3.30;;;2.10;;
56173;SDS011;42058;52.308;20.924;2022-08-01T06:48:16;2.27;;;2.07;;
56173;SDS011;42058;52.308;20.924;2022-08-01T06:53:50;2.23;;;1.90;;
56173;SDS011;42058;52.308;20.924;2022-08-01T06:56:16;5.57;;;1.87;;
56173;SDS011;42058;52.308;20.924;2022-08-01T07:01:42;4.30;;;1.73;;
56173;SDS011;42058;52.308;20.924;2022-08-01T07:04:11;3.87;;;1.90;;
56173;SDS011;42058;52.308;20.924;2022-08-01T07:06:41;3.87;;;2.30;;
56173;SDS011;42058;52.308;20.924;2022-08-01T07:09:05;6.10;;;2.10;;
56173;SDS011;42058;52.308;20.924;2022-08-01T07:11:33;8.50;;;1.90;;
56173;SDS011;42058;52.308;20.924;2022-08-01T07:16:57;5.63;;;1.97;;
56173;SDS011;42058;52.308;20.924;2022-08-01T07:22:33;4.07;;;1.80;;
56173;SDS011;42058;52.308;20.924;2022-08-01T07:24:59;1.87;;;1.60;;
56173;SDS011;42058;52.308;20.924;2022-08-01T07:27:25;2.50;;;1.67;;
56173;SDS011;42058;52.308;20.924;2022-08-01T07:29:51;3.43;;;1.50;;
56173;SDS011;42058;52.308;20.924;2022-08-01T07:32:17;2.50;;;1.57;;
56173;SDS011;42058;52.308;20.924;2022-08-01T07:34:43;1.83;;;1.40;;
56173;SDS011;42058;52.308;20.924;2022-08-01T07:37:09;2.73;;;1.40;;
56173;SDS011;42058;52.308;20.924;2022-08-01T07:39:36;2.43;;;1.40;;
56173;SDS011;42058;52.308;20.924;2022-08-01T07:42:02;3.47;;;1.70;;
56173;SDS011;42058;52.308;20.924;2022-08-01T07:44:28;4.17;;;1.80;;
56173;SDS011;42058;52.308;20.924;2022-08-01T07:46:54;2.50;;;1.60;;
56173;SDS011;42058;52.308;20.924;2022-08-01T07:49:20;2.40;;;1.60;;
56173;SDS011;42058;52.308;20.924;2022-08-01T07:51:47;1.93;;;1.43;;
56173;SDS011;42058;52.308;20.924;2022-08-01T07:54:13;1.33;;;1.23;;
56173;SDS011;42058;52.308;20.924;2022-08-01T07:56:39;4.00;;;1.40;;
56173;SDS011;42058;52.308;20.924;2022-08-01T07:59:05;2.50;;;1.43;;
56173;SDS011;42058;52.308;20.924;2022-08-01T08:01:31;3.50;;;1.60;;
56173;SDS011;42058;52.308;20.924;2022-08-01T08:03:57;2.90;;;1.30;;
56173;SDS011;42058;52.308;20.924;2022-08-01T08:06:24;3.43;;;1.20;;
56173;SDS011;42058;52.308;20.924;2022-08-01T08:08:50;1.50;;;1.23;;
56173;SDS011;42058;52.308;20.924;2022-08-01T08:11:16;2.30;;;1.40;;
56173;SDS011;42058;52.308;20.924;2022-08-01T08:13:42;1.30;;;1.13;;
56173;SDS011;42058;52.308;20.924;2022-08-01T08:16:08;3.63;;;1.40;;
56173;SDS011;42058;52.308;20.924;2022-08-01T08:18:34;2.67;;;1.30;;
56173;SDS011;42058;52.308;20.924;2022-08-01T08:21:00;1.30;;;1.10;;
56173;SDS011;42058;52.308;20.924;2022-08-01T08:23:27;1.47;;;1.10;;
56173;SDS011;42058;52.308;20.924;2022-08-01T08:26:11;2.53;;;1.20;;
56173;SDS011;42058;52.308;20.924;2022-08-01T08:28:37;2.20;;;1.17;;
56173;SDS011;42058;52.308;20.924;2022-08-01T08:31:03;7.77;;;1.20;;
56173;SDS011;42058;52.308;20.924;2022-08-01T08:33:31;3.63;;;1.17;;
56173;SDS011;42058;52.308;20.924;2022-08-01T08:35:57;1.20;;;1.10;;
56173;SDS011;42058;52.308;20.924;2022-08-01T08:38:26;3.87;;;1.43;;
56173;SDS011;42058;52.308;20.924;2022-08-01T08:40:52;2.40;;;1.40;;
56173;SDS011;42058;52.308;20.924;2022-08-01T08:43:19;3.40;;;1.13;;
56173;SDS011;42058;52.308;20.924;2022-08-01T08:45:46;1.43;;;1.00;;
56173;SDS011;42058;52.308;20.924;2022-08-01T08:48:12;2.80;;;1.43;;
56173;SDS011;42058;52.308;20.924;2022-08-01T08:50:40;1.17;;;0.90;;
56173;SDS011;42058;52.308;20.924;2022-08-01T08:53:09;4.47;;;1.10;;
56173;SDS011;42058;52.308;20.924;2022-08-01T08:55:38;3.03;;;1.10;;
56173;SDS011;42058;52.308;20.924;2022-08-01T08:58:14;2.50;;;1.20;;
56173;SDS011;42058;52.308;20.924;2022-08-01T09:00:43;3.90;;;1.87;;
56173;SDS011;42058;52.308;20.924;2022-08-01T09:03:09;1.13;;;1.00;;
56173;SDS011;42058;52.308;20.924;2022-08-01T09:05:35;1.60;;;1.00;;
56173;SDS011;42058;52.308;20.924;2022-08-01T09:08:02;6.10;;;1.10;;
56173;SDS011;42058;52.308;20.924;2022-08-01T09:10:33;2.67;;;1.02;;
56173;SDS011;42058;52.308;20.924;2022-08-01T09:13:07;3.87;;;1.37;;
56173;SDS011;42058;52.308;20.924;2022-08-01T09:15:44;2.03;;;1.00;;
56173;SDS011;42058;52.308;20.924;2022-08-01T09:21:09;3.73;;;1.30;;
56173;SDS011;42058;52.308;20.924;2022-08-01T09:23:43;1.07;;;0.90;;
56173;SDS011;42058;52.308;20.924;2022-08-01T09:26:13;1.93;;;1.20;;
56173;SDS011;42058;52.308;20.924;2022-08-01T09:28:41;2.73;;;0.90;;
56173;SDS011;42058;52.308;20.924;2022-08-01T09:31:09;4.77;;;1.00;;
56173;SDS011;42058;52.308;20.924;2022-08-01T09:33:48;1.47;;;1.10;;
56173;SDS011;42058;52.308;20.924;2022-08-01T09:36:23;4.00;;;0.80;;
56173;SDS011;42058;52.308;20.924;2022-08-01T09:38:52;9.07;;;1.27;;
56173;SDS011;42058;52.308;20.924;2022-08-01T09:41:29;1.00;;;0.90;;
56173;SDS011;42058;52.308;20.924;2022-08-01T09:43:56;3.90;;;1.50;;
56173;SDS011;42058;52.308;20.924;2022-08-01T09:46:23;4.87;;;1.40;;
56173;SDS011;42058;52.308;20.924;2022-08-01T09:48:57;2.90;;;0.63;;
56173;SDS011;42058;52.308;20.924;2022-08-01T09:54:02;1.73;;;1.00;;
56173;SDS011;42058;52.308;20.924;2022-08-01T09:56:37;2.33;;;1.00;;
56173;SDS011;42058;52.308;20.924;2022-08-01T09:59:08;1.27;;;0.87;;
56173;SDS011;42058;52.308;20.924;2022-08-01T10:01:42;2.60;;;0.90;;
56173;SDS011;42058;52.308;20.924;2022-08-01T10:04:16;2.03;;;0.80;;
56173;SDS011;42058;52.308;20.924;2022-08-01T10:06:46;1.17;;;0.80;;
56173;SDS011;42058;52.308;20.924;2022-08-01T10:09:26;2.93;;;0.90;;
56173;SDS011;42058;52.308;20.924;2022-08-01T10:11:55;4.00;;;0.90;;
56173;SDS011;42058;52.308;20.924;2022-08-01T10:14:23;2.57;;;0.87;;
56173;SDS011;42058;52.308;20.924;2022-08-01T10:16:56;1.20;;;1.00;;
56173;SDS011;42058;52.308;20.924;2022-08-01T10:19:24;3.15;;;1.35;;
56173;SDS011;42058;52.308;20.924;2022-08-01T10:21:53;4.10;;;1.10;;
56173;SDS011;42058;52.308;20.924;2022-08-01T10:24:23;3.23;;;1.03;;
56173;SDS011;42058;52.308;20.924;2022-08-01T10:27:00;4.50;;;0.83;;
56173;SDS011;42058;52.308;20.924;2022-08-01T10:29:46;2.57;;;0.90;;
56173;SDS011;42058;52.308;20.924;2022-08-01T10:32:27;2.40;;;1.17;;
56173;SDS011;42058;52.308;20.924;2022-08-01T10:37:35;3.30;;;0.90;;
56173;SDS011;42058;52.308;20.924;2022-08-01T10:40:14;4.17;;;1.00;;
56173;SDS011;42058;52.308;20.924;2022-08-01T10:42:44;3.70;;;0.80;;
56173;SDS011;42058;52.308;20.924;2022-08-01T10:45:13;1.40;;;1.07;;
56173;SDS011;42058;52.308;20.924;2022-08-01T10:47:57;1.60;;;1.27;;
56173;SDS011;42058;52.308;20.924;2022-08-01T10:50:29;2.20;;;1.20;;
56173;SDS011;42058;52.308;20.924;2022-08-01T10:53:14;0.87;;;0.87;;
56173;SDS011;42058;52.308;20.924;2022-08-01T10:55:58;1.70;;;1.07;;
56173;SDS011;42058;52.308;20.924;2022-08-01T10:58:30;3.33;;;1.10;;
56173;SDS011;42058;52.308;20.924;2022-08-01T11:04:09;2.37;;;1.23;;
56173;SDS011;42058;52.308;20.924;2022-08-01T11:09:38;1.27;;;1.03;;
56173;SDS011;42058;52.308;20.924;2022-08-01T11:12:14;4.58;;;1.20;;
56173;SDS011;42058;52.308;20.924;2022-08-01T11:17:33;2.50;;;1.23;;
56173;SDS011;42058;52.308;20.924;2022-08-01T11:20:10;5.77;;;1.37;;
56173;SDS011;42058;52.308;20.924;2022-08-01T11:30:50;3.80;;;1.33;;
56173;SDS011;42058;52.308;20.924;2022-08-01T11:38:49;1.67;;;1.20;;
56173;SDS011;42058;52.308;20.924;2022-08-01T11:41:28;4.87;;;0.98;;
56173;SDS011;42058;52.308;20.924;2022-08-01T11:46:48;3.10;;;1.53;;
56173;SDS011;42058;52.308;20.924;2022-08-01T11:49:29;2.47;;;1.20;;
56173;SDS011;42058;52.308;20.924;2022-08-01T11:52:08;3.23;;;1.20;;
56173;SDS011;42058;52.308;20.924;2022-08-01T11:54:51;3.40;;;1.27;;
56173;SDS011;42058;52.308;20.924;2022-08-01T11:57:24;3.17;;;1.13;;
56173;SDS011;42058;52.308;20.924;2022-08-01T11:59:58;3.40;;;0.97;;
56173;SDS011;42058;52.308;20.924;2022-08-01T12:02:26;1.43;;;1.20;;
56173;SDS011;42058;52.308;20.924;2022-08-01T12:04:56;1.13;;;1.03;;
56173;SDS011;42058;52.308;20.924;2022-08-01T12:07:43;2.47;;;1.10;;
56173;SDS011;42058;52.308;20.924;2022-08-01T12:15:37;1.87;;;1.20;;
56173;SDS011;42058;52.308;20.924;2022-08-01T12:20:38;2.03;;;1.20;;
56173;SDS011;42058;52.308;20.924;2022-08-01T12:23:10;3.58;;;1.07;;
56173;SDS011;42058;52.308;20.924;2022-08-01T12:25:39;2.20;;;1.10;;
56173;SDS011;42058;52.308;20.924;2022-08-01T12:28:09;1.40;;;1.30;;
56173;SDS011;42058;52.308;20.924;2022-08-01T12:30:39;3.50;;;1.13;;
56173;SDS011;42058;52.308;20.924;2022-08-01T12:33:11;1.27;;;1.10;;
56173;SDS011;42058;52.308;20.924;2022-08-01T12:35:49;3.27;;;1.10;;
56173;SDS011;42058;52.308;20.924;2022-08-01T12:38:20;1.73;;;1.20;;
56173;SDS011;42058;52.308;20.924;2022-08-01T12:40:53;2.53;;;1.10;;
56173;SDS011;42058;52.308;20.924;2022-08-01T12:43:22;1.90;;;1.10;;
56173;SDS011;42058;52.308;20.924;2022-08-01T12:45:51;1.40;;;1.30;;
56173;SDS011;42058;52.308;20.924;2022-08-01T12:48:19;3.20;;;1.20;;
56173;SDS011;42058;52.308;20.924;2022-08-01T12:50:51;6.67;;;1.40;;
56173;SDS011;42058;52.308;20.924;2022-08-01T12:53:15;1.10;;;1.10;;
56173;SDS011;42058;52.308;20.924;2022-08-01T12:55:44;2.80;;;1.40;;
56173;SDS011;42058;52.308;20.924;2022-08-01T12:58:14;3.43;;;1.13;;
56173;SDS011;42058;52.308;20.924;2022-08-01T13:00:43;3.00;;;1.00;;
56173;SDS011;42058;52.308;20.924;2022-08-01T13:03:13;4.20;;;1.20;;
56173;SDS011;42058;52.308;20.924;2022-08-01T13:05:50;5.47;;;1.20;;
56173;SDS011;42058;52.308;20.924;2022-08-01T13:08:23;2.70;;;1.40;;
56173;SDS011;42058;52.308;20.924;2022-08-01T13:11:07;6.33;;;1.20;;
56173;SDS011;42058;52.308;20.924;2022-08-01T13:13:43;3.00;;;1.77;;
56173;SDS011;42058;52.308;20.924;2022-08-01T13:16:08;4.58;;;1.80;;
56173;SDS011;42058;52.308;20.924;2022-08-01T13:18:36;3.05;;;1.90;;
56173;SDS011;42058;52.308;20.924;2022-08-01T13:21:16;2.42;;;1.80;;
56173;SDS011;42058;52.308;20.924;2022-08-01T13:23:42;2.62;;;1.60;;
56173;SDS011;42058;52.308;20.924;2022-08-01T13:26:52;4.75;;;1.90;;
56173;SDS011;42058;52.308;20.924;2022-08-01T13:29:33;4.10;;;1.82;;
56173;SDS011;42058;52.308;20.924;2022-08-01T13:34:46;2.27;;;1.92;;
56173;SDS011;42058;52.308;20.924;2022-08-01T13:37:12;4.50;;;2.02;;
56173;SDS011;42058;52.308;20.924;2022-08-01T13:39:39;1.70;;;1.60;;
56173;SDS011;42058;52.308;20.924;2022-08-01T13:42:13;3.00;;;1.80;;
56173;SDS011;42058;52.308;20.924;2022-08-01T13:44:41;3.17;;;2.27;;
56173;SDS011;42058;52.308;20.924;2022-08-01T13:47:11;1.95;;;1.80;;
56173;SDS011;42058;52.308;20.924;2022-08-01T13:49:38;2.60;;;2.00;;
56173;SDS011;42058;52.308;20.924;2022-08-01T13:52:04;2.90;;;2.10;;
56173;SDS011;42058;52.308;20.924;2022-08-01T13:54:33;2.25;;;2.05;;
56173;SDS011;42058;52.308;20.924;2022-08-01T13:57:00;2.98;;;2.08;;
56173;SDS011;42058;52.308;20.924;2022-08-01T13:59:26;4.92;;;2.02;;
56173;SDS011;42058;52.308;20.924;2022-08-01T14:01:52;4.90;;;2.00;;
56173;SDS011;42058;52.308;20.924;2022-08-01T14:04:18;5.28;;;2.30;;
56173;SDS011;42058;52.308;20.924;2022-08-01T14:06:46;2.25;;;2.02;;
56173;SDS011;42058;52.308;20.924;2022-08-01T14:09:16;4.47;;;1.98;;
56173;SDS011;42058;52.308;20.924;2022-08-01T14:11:45;1.82;;;1.72;;
56173;SDS011;42058;52.308;20.924;2022-08-01T14:14:11;5.70;;;2.30;;
56173;SDS011;42058;52.308;20.924;2022-08-01T14:16:38;1.70;;;1.60;;
56173;SDS011;42058;52.308;20.924;2022-08-01T14:19:05;3.80;;;1.70;;
56173;SDS011;42058;52.308;20.924;2022-08-01T14:21:31;6.05;;;2.02;;
56173;SDS011;42058;52.308;20.924;2022-08-01T14:23:57;3.90;;;1.82;;
56173;SDS011;42058;52.308;20.924;2022-08-01T14:26:23;3.27;;;1.80;;
56173;SDS011;42058;52.308;20.924;2022-08-01T14:28:52;2.35;;;1.60;;
56173;SDS011;42058;52.308;20.924;2022-08-01T14:31:20;3.35;;;2.12;;
56173;SDS011;42058;52.308;20.924;2022-08-01T14:33:53;4.65;;;2.20;;
56173;SDS011;42058;52.308;20.924;2022-08-01T14:36:24;1.80;;;1.70;;
56173;SDS011;42058;52.308;20.924;2022-08-01T14:38:58;2.30;;;2.07;;
56173;SDS011;42058;52.308;20.924;2022-08-01T14:41:31;2.10;;;1.90;;
56173;SDS011;42058;52.308;20.924;2022-08-01T14:44:00;2.23;;;1.87;;
56173;SDS011;42058;52.308;20.924;2022-08-01T14:46:31;6.23;;;2.00;;
56173;SDS011;42058;52.308;20.924;2022-08-01T14:49:03;3.10;;;1.90;;
56173;SDS011;42058;52.308;20.924;2022-08-01T14:51:32;2.63;;;1.83;;
56173;SDS011;42058;52.308;20.924;2022-08-01T14:54:05;2.63;;;1.50;;
56173;SDS011;42058;52.308;20.924;2022-08-01T14:56:38;3.80;;;1.57;;
56173;SDS011;42058;52.308;20.924;2022-08-01T14:59:04;2.97;;;1.90;;
56173;SDS011;42058;52.308;20.924;2022-08-01T15:01:38;4.37;;;1.90;;
56173;SDS011;42058;52.308;20.924;2022-08-01T15:04:04;2.60;;;1.90;;
56173;SDS011;42058;52.308;20.924;2022-08-01T15:06:30;2.00;;;1.90;;
56173;SDS011;42058;52.308;20.924;2022-08-01T15:08:59;2.57;;;2.00;;
56173;SDS011;42058;52.308;20.924;2022-08-01T15:11:25;9.57;;;2.10;;
56173;SDS011;42058;52.308;20.924;2022-08-01T15:13:52;2.07;;;1.97;;
56173;SDS011;42058;52.308;20.924;2022-08-01T15:16:36;3.33;;;1.83;;
56173;SDS011;42058;52.308;20.924;2022-08-01T15:19:03;2.40;;;2.20;;
56173;SDS011;42058;52.308;20.924;2022-08-01T15:21:29;9.10;;;1.97;;
56173;SDS011;42058;52.308;20.924;2022-08-01T15:23:55;4.27;;;2.10;;
56173;SDS011;42058;52.308;20.924;2022-08-01T15:26:21;2.20;;;2.00;;
56173;SDS011;42058;52.308;20.924;2022-08-01T15:28:47;2.43;;;2.13;;
56173;SDS011;42058;52.308;20.924;2022-08-01T15:31:13;2.33;;;2.10;;
56173;SDS011;42058;52.308;20.924;2022-08-01T15:33:41;2.27;;;2.07;;
56173;SDS011;42058;52.308;20.924;2022-08-01T15:36:09;6.20;;;2.17;;
56173;SDS011;42058;52.308;20.924;2022-08-01T15:38:38;4.70;;;1.93;;
56173;SDS011;42058;52.308;20.924;2022-08-01T15:41:04;2.30;;;2.03;;
56173;SDS011;42058;52.308;20.924;2022-08-01T15:43:30;3.17;;;2.03;;
56173;SDS011;42058;52.308;20.924;2022-08-01T15:45:57;4.13;;;1.80;;
56173;SDS011;42058;52.308;20.924;2022-08-01T15:48:23;2.40;;;1.90;;
56173;SDS011;42058;52.308;20.924;2022-08-01T15:50:49;8.10;;;1.70;;
56173;SDS011;42058;52.308;20.924;2022-08-01T15:53:16;4.00;;;1.90;;
56173;SDS011;42058;52.308;20.924;2022-08-01T15:55:44;5.23;;;2.10;;
56173;SDS011;42058;52.308;20.924;2022-08-01T15:58:10;4.40;;;2.00;;